バーミンガム の空港の天気 - METARとTAF

バーミンガム国際空港 ( EGBB / BHX ) - イギリス バーミンガム
飛行場実況気象(Metar)
観測時間11/12 03:20 GMT (11/12 03:20 UTC)
風向・風速西南西 4m/s
視程10km以上
天気現象
なし
気温4℃
湿度81%
気圧997hPa
METAREGBB 120320Z AUTO 24008KT 210V270 9999 NCD 04/01 Q0997
過去の天気等 Google飛行場航空写真 Wunderground天気予報

過去48時間のMETAR

飛行場予報(TAF)
発表時間: 11/11 23:00 GMT (11/11 23:00 UTC)
予報対象時間: 12日0時 GMT ~ 13日0時 GMT
風向・風速西南西 5m/s
視程10km以上
少しの雲 雲底高度 370m
全天の4割程度の雲 雲底高度 910m
12日0時 GMT ~ 12日7時 GMT に 確率 30% で一時的に
風向・風速西南西 8m/s 瞬間風速 13m/s
視程6000m
天気現象しゅう雨
12日7時 GMT ~ 12日10時 GMT に徐々に
風向・風速西 9m/s 瞬間風速 15m/s
12日7時 GMT ~ 12日15時 GMT に一時的に
視程6000m
天気現象
全天の8割程度の雲 雲底高度 370m
12日7時 GMT ~ 12日13時 GMT に 確率 30% で一時的に
視程4000m
天気現象強い雨
12日12時 GMT ~ 12日15時 GMT に徐々に
風向・風速西北西 6m/s
12日22時 GMT ~ 12日24時 GMT に 確率 30% で一時的に
視程7000m
天気現象しゅう雨
TAF EGBB 112300Z 1200/1224 24009KT 9999 FEW012 SCT030
PROB30 TEMPO 1200/1207 25015G25KT 6000 SHRA
BECMG 1207/1210 26018G30KT
TEMPO 1207/1215 6000 RA BKN012
PROB30 TEMPO 1207/1213 4000 +RA
BECMG 1212/1215 30012KT
PROB30 TEMPO 1222/1224 7000 SHRA